createdAt,value
2019-02-08T00:02:21.594Z,98905.80
2019-02-08T00:04:54.927Z,98904.21
2019-02-08T00:07:26.738Z,98895.45
2019-02-08T00:09:59.511Z,98897.66
2019-02-08T00:12:31.806Z,98887.47
2019-02-08T00:15:04.817Z,98888.52
2019-02-08T00:17:36.970Z,98890.20
2019-02-08T00:20:10.494Z,98882.73
2019-02-08T00:22:42.859Z,98873.78
2019-02-08T00:25:18.414Z,98862.85
2019-02-08T00:27:49.904Z,98861.59
2019-02-08T00:30:25.010Z,98869.84
2019-02-08T00:32:56.721Z,98875.00
2019-02-08T00:35:29.073Z,98874.72
2019-02-08T00:38:01.062Z,98885.04
2019-02-08T00:41:26.344Z,98884.16
2019-02-08T00:43:57.749Z,98894.06
2019-02-08T00:46:29.723Z,98885.52
2019-02-08T00:49:01.352Z,98888.02
2019-02-08T00:51:32.705Z,98890.33
2019-02-08T00:54:04.155Z,98899.08
2019-02-08T00:56:35.939Z,98898.39
2019-02-08T00:59:07.980Z,98889.93
2019-02-08T01:01:39.407Z,98889.52
2019-02-08T01:04:11.203Z,98894.17
2019-02-08T01:06:42.580Z,98888.08
2019-02-08T01:09:13.986Z,98893.51
2019-02-08T01:11:45.401Z,98902.81
2019-02-08T01:14:16.754Z,98904.89
2019-02-08T01:16:48.377Z,98906.96
2019-02-08T01:19:19.740Z,98899.22
2019-02-08T01:21:51.242Z,98902.72
2019-02-08T01:24:22.734Z,98906.96
2019-02-08T01:26:54.202Z,98913.09
2019-02-08T01:29:26.078Z,98905.84
2019-02-08T01:31:57.254Z,98902.35
2019-02-08T01:34:28.639Z,98894.45
2019-02-08T01:37:00.153Z,98882.87
2019-02-08T01:39:31.528Z,98867.44
2019-02-08T01:42:03.707Z,98864.63
2019-02-08T01:44:34.996Z,98866.05
2019-02-08T01:47:07.175Z,98858.92
2019-02-08T01:49:38.495Z,98859.03
2019-02-08T01:52:10.368Z,98852.67
2019-02-08T01:54:41.634Z,98859.45
2019-02-08T01:57:13.052Z,98867.58
2019-02-08T01:59:44.404Z,98861.12
2019-02-08T02:02:16.107Z,98871.38
2019-02-08T02:04:47.487Z,98867.45
2019-02-08T02:07:19.212Z,98867.16
2019-02-08T02:09:50.619Z,98870.85
2019-02-08T02:12:22.079Z,98867.62
2019-02-08T02:14:53.344Z,98868.40
2019-02-08T02:17:24.733Z,98860.54
2019-02-08T02:19:56.127Z,98856.34
2019-02-08T02:22:27.447Z,98850.50
2019-02-08T02:24:58.778Z,98857.39
2019-02-08T02:27:30.103Z,98852.78
2019-02-08T02:30:01.674Z,98850.52
2019-02-08T02:32:33.363Z,98858.45
2019-02-08T02:35:05.815Z,98870.19
2019-02-08T02:37:37.275Z,98865.34
2019-02-08T02:40:10.991Z,98865.91
2019-02-08T02:42:42.421Z,98858.14
2019-02-08T02:45:21.335Z,98859.75
2019-02-08T02:47:52.812Z,98861.69
2019-02-08T02:50:24.274Z,98858.83
2019-02-08T02:52:55.625Z,98854.69
2019-02-08T02:55:28.016Z,98860.22
2019-02-08T02:58:00.180Z,98858.92
2019-02-08T03:00:48.019Z,98861.91
2019-02-08T03:03:19.907Z,98866.66
2019-02-08T03:05:51.398Z,98873.74
2019-02-08T03:08:22.984Z,98876.31
2019-02-08T03:10:54.229Z,98882.77
2019-02-08T03:13:25.818Z,98876.52
2019-02-08T03:15:57.114Z,98878.21
2019-02-08T03:18:28.515Z,98872.45
2019-02-08T03:20:59.822Z,98868.97
2019-02-08T03:23:31.131Z,98860.23
2019-02-08T03:26:02.452Z,98861.80
2019-02-08T03:28:33.957Z,98867.25
2019-02-08T03:31:05.099Z,98866.17
2019-02-08T03:33:36.445Z,98861.93
2019-02-08T03:36:08.003Z,98871.41
2019-02-08T03:38:39.399Z,98874.55
2019-02-08T03:41:10.817Z,98869.66
2019-02-08T03:43:42.161Z,98857.58
2019-02-08T03:46:13.535Z,98850.55
2019-02-08T03:48:44.734Z,98850.84
2019-02-08T03:51:16.028Z,98850.84
2019-02-08T03:53:47.121Z,98859.13
2019-02-08T03:56:18.412Z,98868.59
2019-02-08T03:58:49.679Z,98871.32
2019-02-08T04:01:21.052Z,98870.88
2019-02-08T04:03:52.917Z,98861.36
2019-02-08T04:06:24.320Z,98862.34
2019-02-08T04:08:56.667Z,98862.91
2019-02-08T04:11:28.036Z,98854.27
2019-02-08T04:14:00.509Z,98845.08
2019-02-08T04:16:33.351Z,98837.81
2019-02-08T04:19:06.101Z,98846.33
2019-02-08T04:21:37.315Z,98857.02
2019-02-08T04:24:09.341Z,98859.22
2019-02-08T04:26:41.148Z,98859.22
2019-02-08T04:29:12.506Z,98864.31
2019-02-08T04:31:43.835Z,98856.98
2019-02-08T04:34:18.533Z,98865.09
2019-02-08T04:36:50.184Z,98861.57
2019-02-08T04:39:21.773Z,98858.92
2019-02-08T04:41:53.231Z,98854.69
2019-02-08T04:44:24.561Z,98861.30
2019-02-08T04:46:56.160Z,98853.00
2019-02-08T04:49:27.468Z,98842.95
2019-02-08T04:51:58.729Z,98844.86
2019-02-08T04:54:37.893Z,98843.86
2019-02-08T04:57:03.047Z,98846.02
2019-02-08T04:59:34.354Z,98839.74
2019-02-08T05:02:06.534Z,98840.66
2019-02-08T05:04:38.093Z,98840.09
2019-02-08T05:07:27.117Z,98839.05
2019-02-08T05:09:58.354Z,98837.47
2019-02-08T05:12:29.770Z,98842.72
2019-02-08T05:15:01.188Z,98845.06
2019-02-08T05:17:32.525Z,98847.89
2019-02-08T05:20:04.149Z,98848.70
2019-02-08T05:22:35.703Z,98853.48
2019-02-08T05:25:07.575Z,98851.52
2019-02-08T05:27:39.101Z,98855.61
2019-02-08T05:30:16.602Z,98859.33
2019-02-08T05:32:48.234Z,98857.48
2019-02-08T05:35:20.510Z,98859.88
2019-02-08T05:37:52.171Z,98872.87
2019-02-08T05:40:24.279Z,98865.01
2019-02-08T05:42:55.877Z,98873.87
2019-02-08T05:45:27.645Z,98877.20
2019-02-08T05:47:59.101Z,98883.92
2019-02-08T05:50:30.614Z,98876.46
2019-02-08T05:53:02.109Z,98890.84
2019-02-08T05:55:34.377Z,98892.22
2019-02-08T05:58:07.664Z,98892.22
2019-02-08T06:00:59.225Z,98890.08
2019-02-08T06:03:30.770Z,98884.40
2019-02-08T06:06:02.572Z,98885.83
2019-02-08T06:08:33.971Z,98889.41
2019-02-08T06:11:05.662Z,98883.77
2019-02-08T06:13:37.388Z,98888.79
2019-02-08T06:16:09.074Z,98888.77
2019-02-08T06:18:40.539Z,98887.41
2019-02-08T06:21:12.012Z,98888.27
2019-02-08T06:23:44.081Z,98897.78
2019-02-08T06:26:15.519Z,98904.37
2019-02-08T06:28:47.138Z,98901.39
2019-02-08T06:31:18.952Z,98905.75
2019-02-08T06:33:50.534Z,98912.66
2019-02-08T06:36:21.898Z,98916.31
2019-02-08T06:38:53.562Z,98915.11
2019-02-08T06:41:25.266Z,98921.05
2019-02-08T06:43:56.670Z,98927.37
2019-02-08T06:46:27.890Z,98920.48
2019-02-08T06:48:59.351Z,98927.95
2019-02-08T06:51:30.850Z,98924.20
2019-02-08T06:54:02.358Z,98935.23
2019-02-08T06:57:10.677Z,98932.52
2019-02-08T06:59:48.122Z,98936.67
2019-02-08T07:02:44.421Z,98940.56
2019-02-08T07:05:38.254Z,98935.11
2019-02-08T07:08:27.853Z,98924.66
2019-02-08T07:11:17.800Z,98925.78
2019-02-08T07:14:08.781Z,98919.60
2019-02-08T07:17:05.316Z,98917.39
2019-02-08T07:20:01.549Z,98919.36
2019-02-08T07:22:50.340Z,98932.58
2019-02-08T07:25:34.826Z,98944.49
2019-02-08T07:28:18.034Z,98944.47
2019-02-08T07:31:01.619Z,98960.73
2019-02-08T07:33:57.550Z,98962.81
2019-02-08T07:36:46.625Z,98967.22
2019-02-08T07:39:34.798Z,98970.66
2019-02-08T07:42:34.791Z,98977.47
2019-02-08T07:45:13.461Z,98980.37
2019-02-08T07:48:05.693Z,98981.00
2019-02-08T07:51:02.080Z,98977.58
2019-02-08T07:54:05.453Z,98971.84
2019-02-08T07:57:07.869Z,98981.77
2019-02-08T08:00:10.432Z,98982.82
2019-02-08T08:03:10.017Z,98980.55
2019-02-08T08:06:04.567Z,98981.19
2019-02-08T08:09:07.145Z,98982.36
2019-02-08T08:11:49.595Z,98984.75
2019-02-08T08:14:59.284Z,98987.53
2019-02-08T08:18:07.870Z,98995.37
2019-02-08T08:20:57.494Z,98998.92
2019-02-08T08:23:55.335Z,98999.64
2019-02-08T08:26:47.021Z,99012.02
2019-02-08T08:29:45.458Z,99018.23
2019-02-08T08:32:33.511Z,99024.89
2019-02-08T08:36:03.180Z,99009.78
2019-02-08T08:39:40.122Z,99018.59
2019-02-08T08:43:10.991Z,99016.33
2019-02-08T08:46:50.381Z,99026.32
2019-02-08T08:49:58.291Z,99027.05
2019-02-08T08:54:06.072Z,99024.50
2019-02-08T08:57:19.759Z,99027.99
2019-02-08T09:01:06.423Z,99024.07
2019-02-08T09:04:28.696Z,99024.52
2019-02-08T09:07:51.148Z,99025.16
2019-02-08T09:11:32.617Z,99027.66
2019-02-08T09:15:22.686Z,99029.88
2019-02-08T09:18:59.594Z,99026.78
2019-02-08T09:22:12.006Z,99037.61
2019-02-08T09:25:34.110Z,99026.59
2019-02-08T09:28:51.784Z,99035.28
2019-02-08T09:32:22.584Z,99041.25
2019-02-08T09:35:25.451Z,99036.47
2019-02-08T09:39:14.422Z,99037.12
2019-02-08T09:43:05.779Z,99050.30
2019-02-08T09:46:44.847Z,99048.69
2019-02-08T09:50:09.937Z,99051.77
2019-02-08T09:53:41.742Z,99055.22
2019-02-08T09:57:10.652Z,99041.79
2019-02-08T10:00:43.201Z,99040.66
2019-02-08T10:04:03.799Z,99049.96
2019-02-08T10:07:29.108Z,99043.67
2019-02-08T10:10:57.972Z,99047.22
2019-02-08T10:14:31.126Z,99039.36
2019-02-08T10:18:07.514Z,99037.23
2019-02-08T10:21:18.017Z,99035.33
2019-02-08T10:24:46.358Z,99041.20
2019-02-08T10:28:17.975Z,99034.84
2019-02-08T10:31:56.709Z,99036.17
2019-02-08T10:35:20.905Z,99028.00
2019-02-08T10:39:01.422Z,99028.36
2019-02-08T10:42:34.732Z,99023.11
2019-02-08T10:46:13.096Z,99031.83
2019-02-08T10:49:42.136Z,99038.06
2019-02-08T10:53:20.653Z,99035.36
2019-02-08T10:56:58.351Z,99030.85
2019-02-08T11:00:56.845Z,99029.17
2019-02-08T11:04:19.712Z,99030.29
2019-02-08T11:07:52.059Z,99030.59
2019-02-08T11:11:23.614Z,99023.20
2019-02-08T11:14:52.776Z,99025.20
2019-02-08T11:18:36.914Z,99027.61
2019-02-08T11:21:08.753Z,99029.17
2019-02-08T11:23:40.297Z,99030.02
2019-02-08T11:26:12.235Z,99023.02
2019-02-08T11:28:43.884Z,99024.34
2019-02-08T11:31:16.224Z,99018.34
2019-02-08T11:33:47.865Z,99017.21
2019-02-08T11:36:19.480Z,99018.35
2019-02-08T11:38:51.225Z,99016.64
2019-02-08T11:41:22.707Z,99009.81
2019-02-08T11:43:54.705Z,99012.73
2019-02-08T11:46:26.257Z,99012.56
2019-02-08T11:48:57.690Z,99012.23
2019-02-08T11:51:30.473Z,99011.02
2019-02-08T11:54:02.549Z,99009.52
2019-02-08T11:56:34.085Z,99005.81
2019-02-08T11:59:06.487Z,99000.15
2019-02-08T12:01:41.381Z,99000.62
2019-02-08T12:04:14.478Z,98998.73
2019-02-08T12:06:46.374Z,98989.10
2019-02-08T12:09:19.519Z,98993.91
2019-02-08T12:11:51.321Z,98991.64
2019-02-08T12:14:22.819Z,98983.55
2019-02-08T12:16:54.453Z,98979.66
2019-02-08T12:19:25.964Z,98975.88
2019-02-08T12:21:57.356Z,98971.55
2019-02-08T12:24:28.978Z,98967.80
2019-02-08T12:27:00.629Z,98970.03
2019-02-08T12:29:32.329Z,98967.30
2019-02-08T12:32:03.793Z,98961.47
2019-02-08T12:34:35.317Z,98959.89
2019-02-08T12:37:07.227Z,98962.92
2019-02-08T12:39:39.810Z,98958.16
2019-02-08T12:42:11.320Z,98951.20
2019-02-08T12:44:42.926Z,98950.19
2019-02-08T12:47:14.441Z,98948.62
2019-02-08T12:49:46.068Z,98938.67
2019-02-08T12:52:17.862Z,98939.97
2019-02-08T12:54:50.111Z,98942.97
2019-02-08T12:57:23.171Z,98935.19
2019-02-08T12:59:55.311Z,98929.67
2019-02-08T13:02:27.065Z,98939.13
2019-02-08T13:04:59.160Z,98931.86
2019-02-08T13:07:31.657Z,98928.94
2019-02-08T13:10:04.255Z,98923.84
2019-02-08T13:12:36.256Z,98923.55
2019-02-08T13:15:10.609Z,98923.41
2019-02-08T13:17:42.087Z,98919.56
2019-02-08T13:20:17.836Z,98916.16
2019-02-08T13:22:49.459Z,98913.14
2019-02-08T13:25:21.303Z,98919.58
2019-02-08T13:27:53.292Z,98911.77
2019-02-08T13:30:28.582Z,98916.30
2019-02-08T13:33:00.495Z,98910.80
2019-02-08T13:35:32.288Z,98903.37
2019-02-08T13:38:04.404Z,98903.61
2019-02-08T13:40:36.014Z,98901.97
2019-02-08T13:43:07.804Z,98908.63
2019-02-08T13:45:39.666Z,98911.67
2019-02-08T13:48:11.094Z,98907.70
2019-02-08T13:50:42.597Z,98908.08
2019-02-08T13:53:13.925Z,98899.62
2019-02-08T13:55:45.463Z,98899.67
2019-02-08T13:58:17.901Z,98899.45
2019-02-08T14:00:49.616Z,98903.02
2019-02-08T14:03:21.628Z,98901.23
2019-02-08T14:05:53.232Z,98905.16
2019-02-08T14:08:26.705Z,98907.70
2019-02-08T14:10:59.030Z,98912.99
2019-02-08T14:13:30.606Z,98904.91
2019-02-08T14:16:02.440Z,98908.55
2019-02-08T14:18:34.027Z,98906.97
2019-02-08T14:21:06.137Z,98911.13
2019-02-08T14:23:37.903Z,98912.93
2019-02-08T14:26:09.439Z,98913.11
2019-02-08T14:28:41.116Z,98909.28
2019-02-08T14:31:13.102Z,98912.28
2019-02-08T14:33:45.610Z,98915.96
2019-02-08T14:36:18.074Z,98918.72
2019-02-08T14:38:49.585Z,98921.64
2019-02-08T14:41:21.202Z,98926.03
2019-02-08T14:43:52.917Z,98923.52
2019-02-08T14:46:24.560Z,98924.39
2019-02-08T14:48:57.642Z,98918.11
2019-02-08T14:51:29.366Z,98921.45
2019-02-08T14:54:00.810Z,98922.08
2019-02-08T14:56:32.978Z,98920.76
2019-02-08T14:59:04.467Z,98924.42
2019-02-08T15:01:36.717Z,98923.70
2019-02-08T15:04:09.274Z,98920.34
2019-02-08T15:06:40.869Z,98922.29
2019-02-08T15:09:13.772Z,98930.33
2019-02-08T15:11:45.412Z,98926.89
2019-02-08T15:14:16.929Z,98928.58
2019-02-08T15:16:48.652Z,98925.87
2019-02-08T15:19:20.194Z,98927.44
2019-02-08T15:21:51.834Z,98926.83
2019-02-08T15:24:23.284Z,98923.92
2019-02-08T15:26:55.581Z,98925.09
2019-02-08T15:29:28.119Z,98931.38
2019-02-08T15:31:59.730Z,98926.09
2019-02-08T15:34:57.093Z,98931.80
2019-02-08T15:37:54.506Z,98932.17
2019-02-08T15:43:57.305Z,98931.06
2019-02-08T15:46:51.204Z,98933.72
2019-02-08T15:49:48.292Z,98936.11
2019-02-08T15:52:35.898Z,98928.21
2019-02-08T15:55:28.924Z,98930.38
2019-02-08T15:58:24.013Z,98929.77
2019-02-08T16:01:33.084Z,98929.83
2019-02-08T16:04:24.612Z,98928.83
2019-02-08T16:08:17.352Z,98928.27
2019-02-08T16:10:58.243Z,98925.95
2019-02-08T16:14:18.236Z,98938.53
2019-02-08T16:17:00.613Z,98944.98
2019-02-08T16:19:48.139Z,98950.95
2019-02-08T16:22:30.537Z,98950.47
2019-02-08T16:25:42.445Z,98949.83
2019-02-08T16:28:34.835Z,98956.42
2019-02-08T16:31:32.033Z,98967.52
2019-02-08T16:34:40.072Z,98970.48
2019-02-08T16:37:33.553Z,98965.13
2019-02-08T16:40:38.313Z,98965.13
2019-02-08T16:43:29.211Z,98969.05
2019-02-08T16:46:23.920Z,98978.64
2019-02-08T16:49:16.034Z,98979.69
2019-02-08T16:52:13.832Z,98980.41
2019-02-08T16:55:23.741Z,98981.80
2019-02-08T17:02:45.415Z,98989.09
2019-02-08T17:05:52.923Z,98993.26
2019-02-08T17:08:56.155Z,98989.10
2019-02-08T17:12:31.510Z,98992.73
2019-02-08T17:15:19.633Z,98999.49
2019-02-08T17:18:39.069Z,99007.28
2019-02-08T17:21:48.423Z,99006.44
2019-02-08T17:24:31.183Z,99008.67
2019-02-08T17:27:29.292Z,99010.66
2019-02-08T17:30:45.188Z,99016.04
2019-02-08T17:33:48.521Z,99022.71
2019-02-08T17:36:36.504Z,99021.61
2019-02-08T17:39:26.098Z,99022.66
2019-02-08T17:42:34.935Z,99025.27
2019-02-08T17:45:38.890Z,99033.02
2019-02-08T17:48:53.412Z,99036.02
2019-02-08T17:51:38.914Z,99038.07
2019-02-08T17:54:42.296Z,99037.77
2019-02-08T17:57:48.096Z,99043.64
2019-02-08T18:01:36.712Z,99050.81
2019-02-08T18:04:37.354Z,99055.28
2019-02-08T18:07:22.962Z,99048.60
2019-02-08T18:10:38.263Z,99052.84
2019-02-08T18:13:58.208Z,99056.83
2019-02-08T18:17:05.031Z,99059.90
2019-02-08T18:19:53.907Z,99056.77
2019-02-08T18:23:16.284Z,99053.14
2019-02-08T18:26:51.730Z,99053.38
2019-02-08T18:30:02.426Z,99057.50
2019-02-08T18:32:55.547Z,99055.36
2019-02-08T18:36:02.559Z,99063.23
2019-02-08T18:39:06.029Z,99060.94
2019-02-08T18:41:54.733Z,99068.80
2019-02-08T18:45:25.530Z,99071.94
2019-02-08T18:48:14.948Z,99080.13
2019-02-08T18:51:03.757Z,99089.98
2019-02-08T18:53:50.218Z,99081.96
2019-02-08T18:56:39.131Z,99076.38
2019-02-08T18:59:26.050Z,99080.63
2019-02-08T19:02:18.586Z,99084.59
2019-02-08T19:05:05.857Z,99081.79
2019-02-08T19:07:57.643Z,99090.80
2019-02-08T19:10:45.429Z,99090.38
2019-02-08T19:13:27.419Z,99088.68
2019-02-08T19:16:17.091Z,99090.55
2019-02-08T19:19:06.716Z,99080.66
2019-02-08T19:21:51.065Z,99085.41
2019-02-08T19:24:50.396Z,99084.02
2019-02-08T19:27:37.981Z,99090.83
2019-02-08T19:30:27.665Z,99092.67
2019-02-08T19:33:15.376Z,99091.42
2019-02-08T19:36:01.709Z,99090.27
2019-02-08T19:38:53.108Z,99095.72
2019-02-08T19:41:55.447Z,99091.76
2019-02-08T19:44:40.479Z,99093.57
2019-02-08T19:47:39.220Z,99093.34
2019-02-08T19:50:30.669Z,99088.32
2019-02-08T19:53:13.138Z,99097.75
2019-02-08T19:56:00.689Z,99096.97
2019-02-08T19:58:54.745Z,99099.99
2019-02-08T20:01:57.761Z,99104.27
2019-02-08T20:04:47.125Z,99112.47
2019-02-08T20:08:08.921Z,99114.02
2019-02-08T20:10:58.548Z,99119.27
2019-02-08T20:13:56.179Z,99119.54
2019-02-08T20:16:45.989Z,99113.38
2019-02-08T20:19:37.642Z,99121.37
2019-02-08T20:22:32.556Z,99126.98
2019-02-08T20:25:34.424Z,99128.77
2019-02-08T20:29:14.292Z,99130.64
2019-02-08T20:32:03.509Z,99130.80
2019-02-08T20:34:36.459Z,99131.64
2019-02-08T20:37:45.724Z,99132.80
2019-02-08T20:40:25.134Z,99133.48
2019-02-08T20:43:12.996Z,99143.16
2019-02-08T20:46:29.020Z,99134.54
2019-02-08T20:49:05.051Z,99142.08
2019-02-08T20:51:43.315Z,99140.35
2019-02-08T20:54:20.308Z,99135.73
2019-02-08T20:57:01.268Z,99131.61
2019-02-08T20:59:44.422Z,99133.75
2019-02-08T21:02:24.417Z,99123.42
2019-02-08T21:04:57.548Z,99130.95
2019-02-08T21:07:41.994Z,99127.20
2019-02-08T21:10:18.166Z,99121.31
2019-02-08T21:12:51.086Z,99133.88
2019-02-08T21:15:28.379Z,99126.73
2019-02-08T21:18:13.741Z,99137.25
2019-02-08T21:20:48.981Z,99150.62
2019-02-08T21:23:24.582Z,99156.30
2019-02-08T21:25:58.204Z,99164.08
2019-02-08T21:28:30.427Z,99165.45
2019-02-08T21:31:02.503Z,99168.58
2019-02-08T21:33:34.742Z,99164.94
2019-02-08T21:36:07.484Z,99167.03
2019-02-08T21:38:42.122Z,99165.93
2019-02-08T21:41:14.714Z,99168.23
2019-02-08T21:43:47.047Z,99166.94
2019-02-08T21:46:19.878Z,99160.59
2019-02-08T21:48:52.987Z,99148.81
2019-02-08T21:51:25.261Z,99144.14
2019-02-08T21:53:57.188Z,99146.89
2019-02-08T21:56:31.574Z,99150.27
2019-02-08T21:59:06.284Z,99146.23
2019-02-08T22:01:37.177Z,99160.47
2019-02-08T22:04:09.579Z,99168.38
2019-02-08T22:06:41.986Z,99177.97
2019-02-08T22:09:15.518Z,99167.23
2019-02-08T22:11:47.632Z,99168.30
2019-02-08T22:14:19.269Z,99172.70
2019-02-08T22:16:51.341Z,99168.48
2019-02-08T22:19:22.915Z,99159.53
2019-02-08T22:21:54.423Z,99164.34
2019-02-08T22:24:26.047Z,99169.80
2019-02-08T22:26:57.909Z,99176.86
2019-02-08T22:29:29.608Z,99187.86
2019-02-08T22:32:01.344Z,99188.41
2019-02-08T22:34:32.996Z,99200.86
2019-02-08T22:37:05.046Z,99196.25
2019-02-08T22:39:36.742Z,99195.45
2019-02-08T22:42:09.035Z,99202.16
2019-02-08T22:44:44.383Z,99199.70
2019-02-08T22:47:22.768Z,99198.13
2019-02-08T22:50:04.872Z,99204.17
2019-02-08T22:52:41.984Z,99208.30
2019-02-08T22:55:19.739Z,99205.71
2019-02-08T22:57:54.107Z,99205.71
2019-02-08T23:01:25.746Z,99209.89
2019-02-08T23:04:03.231Z,99211.51
2019-02-08T23:06:48.788Z,99199.94
2019-02-08T23:09:30.565Z,99198.16
2019-02-08T23:12:10.184Z,99198.41
2019-02-08T23:14:43.153Z,99203.20
2019-02-08T23:17:18.164Z,99205.65
2019-02-08T23:19:52.749Z,99208.63
2019-02-08T23:22:26.074Z,99206.22
2019-02-08T23:25:06.975Z,99207.40
2019-02-08T23:27:41.403Z,99209.81
2019-02-08T23:30:18.289Z,99204.95
2019-02-08T23:32:57.435Z,99205.11
2019-02-08T23:35:32.591Z,99206.89
2019-02-08T23:38:09.358Z,99202.69
2019-02-08T23:40:52.216Z,99208.22
2019-02-08T23:43:27.133Z,99204.41
2019-02-08T23:46:00.332Z,99206.23
2019-02-08T23:48:34.788Z,99207.36
2019-02-08T23:51:10.761Z,99206.48
2019-02-08T23:53:44.716Z,99209.08
2019-02-08T23:57:22.612Z,99214.33
2019-02-08T23:59:57.692Z,99218.55
